Time;durP1;ratioP1;P1;durP2;ratioP2;P2;SDS_P1;SDS_P2;PMS_P1;PMS_P2;Temp;Humidity;BMP_temperature;BMP_pressure;BME280_temperature;BME280_humidity;BME280_pressure;Samples;Min_cycle;Max_cycle;Signal;HPM_P1;HPM_P2
2022/10/13 00:02:09;;;;;;;;;30.67;27.00;;;;;16.43;60.64;101709.03;5018050;28;45248;-41
2022/10/13 00:04:34;;;;;;;;;31.67;29.00;;;;;16.41;60.67;101711.06;5017525;28;46118;-43
2022/10/13 00:07:00;;;;;;;;;34.33;22.33;;;;;16.41;60.76;101705.69;5017780;28;45451;-41
2022/10/13 00:09:25;;;;;;;;;30.33;24.67;;;;;16.32;60.93;101687.88;5017953;28;45338;-43
2022/10/13 00:11:50;;;;;;;;;40.33;25.00;;;;;16.37;60.93;101707.88;4984050;28;45418;-42
2022/10/13 00:14:16;;;;;;;;;26.33;24.00;;;;;16.38;61.32;101696.09;5017715;28;47082;-41
2022/10/13 00:16:41;;;;;;;;;27.33;27.33;;;;;16.39;60.76;101696.94;5017743;28;45448;-42
2022/10/13 00:19:06;;;;;;;;;37.33;29.67;;;;;16.38;60.75;101701.47;5018004;28;45339;-43
2022/10/13 00:21:32;;;;;;;;;32.67;29.67;;;;;16.38;61.32;101701.47;5017772;28;45494;-44
2022/10/13 00:23:57;;;;;;;;;32.33;28.67;;;;;16.39;61.12;101713.06;5017573;28;45344;-45
2022/10/13 00:26:24;;;;;;;;;35.33;28.33;;;;;16.39;61.10;101713.94;5017637;28;45439;-43
2022/10/13 00:28:50;;;;;;;;;26.67;24.67;;;;;16.39;61.22;101718.44;5017609;28;45423;-43
2022/10/13 00:31:27;;;;;;;;;33.00;25.67;;;;;16.39;60.42;101707.69;5017473;28;45380;-42
2022/10/13 00:33:53;;;;;;;;;26.00;23.33;;;;;16.36;61.10;101694.59;5017381;28;46227;-44
2022/10/13 00:36:20;;;;;;;;;30.33;25.00;;;;;16.36;61.26;101698.13;5016014;28;45434;-42
2022/10/13 00:38:46;;;;;;;;;30.00;24.67;;;;;16.34;61.18;101692.06;5017266;28;45422;-43
2022/10/13 00:41:11;;;;;;;;;32.67;27.00;;;;;16.33;61.16;101686.88;5017435;28;45361;-42
2022/10/13 00:44:01;;;;;;;;;31.67;25.67;;;;;16.29;60.54;101678.28;5017172;28;46020;-42
2022/10/13 00:46:34;;;;;;;;;28.67;25.67;;;;;16.28;60.86;101673.09;5017103;28;45479;-41
2022/10/13 00:49:11;;;;;;;;;34.00;25.33;;;;;16.24;61.17;101675.25;5017250;28;45441;-43
2022/10/13 00:51:40;;;;;;;;;35.33;25.67;;;;;16.21;61.38;101671.03;5017350;28;45501;-42
2022/10/13 00:54:10;;;;;;;;;29.00;25.00;;;;;16.18;61.61;101662.44;5016409;28;45471;-42
2022/10/13 00:56:37;;;;;;;;;30.33;26.00;;;;;16.14;61.52;101661.97;4997213;28;45532;-44
2022/10/13 00:59:07;;;;;;;;;27.33;22.33;;;;;16.14;61.38;101670.00;4997329;28;45294;-43
2022/10/13 01:01:33;;;;;;;;;27.00;23.33;;;;;16.11;61.11;101670.31;4997448;28;45528;-43
2022/10/13 01:03:59;;;;;;;;;26.00;24.00;;;;;16.10;61.87;101670.50;4997051;28;45321;-43
2022/10/13 01:06:24;;;;;;;;;26.33;22.33;;;;;16.08;61.74;101672.47;4996949;28;45361;-42
2022/10/13 01:08:50;;;;;;;;;22.00;19.00;;;;;16.04;61.80;101658.53;4997327;28;45353;-41
2022/10/13 01:11:24;;;;;;;;;26.67;21.33;;;;;16.01;61.77;101669.59;4997303;28;45576;-44
2022/10/13 01:14:05;;;;;;;;;31.33;25.00;;;;;16.00;61.86;101670.59;4997188;28;46199;-41
2022/10/13 01:16:51;;;;;;;;;25.67;20.00;;;;;15.99;61.76;101674.28;4997049;28;45326;-43
2022/10/13 01:19:58;;;;;;;;;21.00;20.00;;;;;16.00;62.02;101673.28;4997031;28;45491;-42
2022/10/13 01:22:42;;;;;;;;;28.00;20.00;;;;;15.98;62.27;101661.88;4996697;28;45464;-41
2022/10/13 01:25:30;;;;;;;;;26.33;22.00;;;;;15.95;62.04;101651.44;4996889;28;46235;-43
2022/10/13 01:28:27;;;;;;;;;24.33;19.00;;;;;15.92;62.08;101667.88;4997067;28;45399;-42
2022/10/13 01:31:18;;;;;;;;;25.33;22.33;;;;;15.93;62.44;101673.09;4916923;28;45257;-44
2022/10/13 01:34:02;;;;;;;;;27.33;19.33;;;;;15.91;61.74;101661.66;4917181;28;45355;-42
2022/10/13 01:37:09;;;;;;;;;32.00;24.33;;;;;15.88;61.91;101650.41;4916739;28;46115;-43
2022/10/13 01:39:48;;;;;;;;;38.33;27.33;;;;;15.78;62.94;101642.47;4878665;29;45715;-42
2022/10/13 01:42:30;;;;;;;;;24.00;24.00;;;;;15.77;63.11;101664.09;4879362;29;45336;-42
2022/10/13 01:45:00;;;;;;;;;26.67;22.67;;;;;15.73;63.36;101643.97;4879443;29;45407;-42
2022/10/13 01:47:28;;;;;;;;;31.33;25.00;;;;;15.74;63.52;101651.00;4879077;29;46582;-43
2022/10/13 01:49:55;;;;;;;;;29.00;25.00;;;;;15.69;63.47;101651.47;4881943;29;45436;-45
2022/10/13 01:52:25;;;;;;;;;32.33;27.33;;;;;15.73;63.43;101663.56;4881885;29;45311;-41
2022/10/13 01:54:52;;;;;;;;;28.67;24.33;;;;;15.76;63.66;101667.75;4882060;29;45470;-42
2022/10/13 01:57:30;;;;;;;;;28.00;25.00;;;;;15.79;63.25;101667.44;4881824;29;46228;-43
2022/10/13 01:59:57;;;;;;;;;28.33;24.00;;;;;15.81;63.44;101654.75;4881930;29;45375;-43
2022/10/13 02:02:30;;;;;;;;;26.67;21.33;;;;;15.83;63.07;101639.31;4882139;29;45372;-43
2022/10/13 02:05:28;;;;;;;;;32.00;23.33;;;;;15.84;63.52;101643.66;4882268;29;45399;-42
2022/10/13 02:08:03;;;;;;;;;25.33;23.00;;;;;15.83;63.25;101661.59;4865247;29;46200;-44
2022/10/13 02:10:48;;;;;;;;;25.00;18.67;;;;;15.74;63.11;101641.09;4881560;29;45303;-42
2022/10/13 02:13:17;;;;;;;;;28.33;22.33;;;;;15.86;63.56;101636.31;4881945;29;45589;-46
2022/10/13 02:15:48;;;;;;;;;23.00;21.33;;;;;15.91;63.10;101640.19;4927194;28;45329;-44
2022/10/13 02:18:18;;;;;;;;;24.00;19.00;;;;;15.91;63.39;101639.34;4938711;28;46320;-42
2022/10/13 02:20:45;;;;;;;;;15.33;11.33;;;;;15.93;63.04;101642.75;4938517;28;45522;-46
2022/10/13 02:23:15;;;;;;;;;23.00;19.67;;;;;15.94;63.26;101639.88;4939184;28;45550;-43
2022/10/13 02:25:41;;;;;;;;;19.33;18.00;;;;;15.97;62.81;101630.69;4938926;28;45286;-44
2022/10/13 02:28:08;;;;;;;;;20.00;16.00;;;;;15.98;63.13;101620.78;4938633;28;46046;-41
2022/10/13 02:30:33;;;;;;;;;13.67;13.67;;;;;15.97;63.31;101611.91;4938639;28;45403;-44
2022/10/13 02:33:00;;;;;;;;;20.00;17.33;;;;;16.02;63.32;101627.50;4938632;28;45616;-42
2022/10/13 02:35:25;;;;;;;;;19.67;16.67;;;;;16.04;63.09;101623.66;4938858;28;45372;-44
2022/10/13 02:37:51;;;;;;;;;20.00;17.00;;;;;15.94;63.26;101606.84;4937788;28;45445;-44
2022/10/13 02:40:16;;;;;;;;;14.67;14.67;;;;;16.05;63.35;101621.81;4938440;28;45465;-45
2022/10/13 02:42:42;;;;;;;;;22.00;19.00;;;;;16.01;63.40;101618.59;4952981;28;45345;-46
2022/10/13 02:45:08;;;;;;;;;25.67;23.33;;;;;16.00;63.67;101599.97;5019135;28;45297;-44
2022/10/13 02:47:33;;;;;;;;;25.67;21.00;;;;;15.96;63.43;101599.47;5018894;28;45985;-49
2022/10/13 02:49:59;;;;;;;;;26.67;18.33;;;;;15.93;63.53;101602.47;5018934;28;45441;-45
2022/10/13 02:52:24;;;;;;;;;26.00;19.00;;;;;15.90;63.41;101581.34;5018755;28;45812;-44
2022/10/13 02:54:49;;;;;;;;;24.00;19.33;;;;;15.90;63.51;101581.34;5019182;28;45562;-45
2022/10/13 02:57:16;;;;;;;;;19.00;19.00;;;;;15.87;63.64;101578.97;5018744;28;45470;-47
2022/10/13 02:59:42;;;;;;;;;27.67;18.33;;;;;15.80;63.97;101572.53;4999931;28;45273;-47
2022/10/13 03:02:07;;;;;;;;;22.00;22.00;;;;;15.80;64.44;101578.78;5018934;28;45421;-45
2022/10/13 03:04:32;;;;;;;;;18.67;17.67;;;;;15.77;64.09;101594.34;5018847;28;45381;-45
2022/10/13 03:06:58;;;;;;;;;20.67;18.00;;;;;15.72;64.39;101600.19;5018591;28;45495;-46
2022/10/13 03:09:23;;;;;;;;;21.67;18.00;;;;;15.73;64.39;101595.66;5018511;28;45391;-44
2022/10/13 03:11:48;;;;;;;;;21.33;16.00;;;;;15.77;64.06;101594.34;5018826;28;45360;-44
2022/10/13 03:14:14;;;;;;;;;21.67;18.67;;;;;15.80;64.44;101589.50;5018805;28;45445;-43
2022/10/13 03:16:39;;;;;;;;;24.33;20.00;;;;;15.76;64.36;101580.09;5018391;28;45452;-45
2022/10/13 03:19:04;;;;;;;;;21.67;19.00;;;;;15.78;64.49;101593.34;5000876;28;45436;-47
2022/10/13 03:21:30;;;;;;;;;23.00;18.00;;;;;15.69;64.47;101582.56;5018501;28;45486;-46
2022/10/13 03:23:55;;;;;;;;;27.67;18.67;;;;;15.71;64.88;101585.91;5018743;28;45368;-43
2022/10/13 03:26:21;;;;;;;;;22.00;15.33;;;;;15.69;64.95;101585.25;5018216;28;46016;-43
2022/10/13 03:28:50;;;;;;;;;20.67;19.67;;;;;15.67;64.43;101579.22;5018356;28;45520;-41
2022/10/13 03:31:16;;;;;;;;;19.67;17.33;;;;;15.66;64.84;101566.78;5018567;28;45406;-44
2022/10/13 03:33:42;;;;;;;;;11.00;7.00;;;;;15.62;64.52;101554.66;5018640;28;45310;-46
2022/10/13 03:36:12;;;;;;;;;21.00;19.00;;;;;15.57;65.06;101554.31;5017912;28;46302;-43
2022/10/13 03:38:38;;;;;;;;;24.00;19.00;;;;;15.50;65.08;101544.38;5000339;28;45683;-43
2022/10/13 03:41:09;;;;;;;;;21.00;18.00;;;;;15.58;64.77;101561.34;5018253;28;45892;-43
2022/10/13 03:43:35;;;;;;;;;21.33;18.67;;;;;15.57;65.08;101565.03;5018268;28;45404;-47
2022/10/13 03:46:02;;;;;;;;;22.00;16.33;;;;;15.56;65.12;101567.88;5018091;28;46129;-44
2022/10/13 03:48:28;;;;;;;;;23.33;16.67;;;;;15.51;65.18;101554.97;5018040;28;45340;-45
2022/10/13 03:50:54;;;;;;;;;21.67;18.67;;;;;15.48;64.80;101537.34;5018085;28;45397;-47
2022/10/13 03:53:20;;;;;;;;;19.33;14.33;;;;;15.45;65.63;101544.84;5018178;28;45262;-45
2022/10/13 03:55:54;;;;;;;;;19.33;19.33;;;;;15.43;65.38;101554.91;5017481;28;47061;-44
2022/10/13 03:58:21;;;;;;;;;25.00;17.33;;;;;15.42;65.64;101532.63;5017888;28;45276;-45
2022/10/13 04:00:47;;;;;;;;;24.67;18.00;;;;;15.45;65.45;101534.13;5018027;28;45495;-44
2022/10/13 04:03:12;;;;;;;;;28.00;20.00;;;;;15.44;65.69;101530.59;5017901;28;45373;-43
2022/10/13 04:05:38;;;;;;;;;21.33;18.33;;;;;15.43;65.50;101539.66;5017836;28;47261;-42
2022/10/13 04:08:04;;;;;;;;;24.33;19.00;;;;;15.43;65.78;101555.75;5017594;28;45502;-47
2022/10/13 04:10:30;;;;;;;;;22.67;18.00;;;;;15.39;65.66;101532.09;5017485;28;45381;-45
2022/10/13 04:12:55;;;;;;;;;19.00;17.33;;;;;15.43;65.82;101534.28;5017937;28;45453;-45
2022/10/13 04:15:21;;;;;;;;;20.33;18.33;;;;;15.41;65.77;101538.97;5017425;28;46259;-43
2022/10/13 04:17:46;;;;;;;;;23.67;19.00;;;;;15.40;65.99;101529.25;5017615;28;45403;-43
2022/10/13 04:20:11;;;;;;;;;25.33;20.33;;;;;15.29;66.07;101505.38;5017664;28;45866;-45
2022/10/13 04:22:37;;;;;;;;;21.67;18.67;;;;;15.40;66.03;101534.59;5017714;28;45292;-42
2022/10/13 04:25:04;;;;;;;;;21.00;19.00;;;;;15.39;65.92;101543.66;5016507;28;45274;-43
2022/10/13 04:27:29;;;;;;;;;19.00;19.00;;;;;15.35;65.97;101544.13;5017672;28;45385;-43
2022/10/13 04:29:55;;;;;;;;;24.00;17.33;;;;;15.45;65.92;101550.22;5018138;28;45413;-45
2022/10/13 04:32:21;;;;;;;;;19.33;16.67;;;;;15.46;66.04;101544.72;5018416;28;45436;-44
2022/10/13 04:34:46;;;;;;;;;22.33;20.33;;;;;15.45;65.87;101545.69;5017660;28;45400;-43
2022/10/13 04:37:11;;;;;;;;;21.33;19.00;;;;;15.47;65.93;101548.22;5017525;28;45378;-47
2022/10/13 04:39:37;;;;;;;;;24.33;18.33;;;;;15.46;65.80;101547.41;5017490;28;45222;-44
2022/10/13 04:42:02;;;;;;;;;18.67;18.00;;;;;15.48;65.92;101547.22;5017638;28;45235;-43
2022/10/13 04:44:28;;;;;;;;;29.00;24.33;;;;;15.49;65.56;101543.53;5017520;28;45470;-47
2022/10/13 04:46:53;;;;;;;;;24.33;22.33;;;;;15.47;65.85;101545.56;5017651;28;45471;-46
2022/10/13 04:49:18;;;;;;;;;23.33;21.67;;;;;15.47;65.99;101551.75;5017445;28;45307;-46
2022/10/13 04:51:44;;;;;;;;;29.33;25.00;;;;;15.47;65.93;101545.56;5017106;28;45353;-44
2022/10/13 04:54:09;;;;;;;;;18.33;15.67;;;;;15.45;66.01;101545.69;5017058;28;45340;-46
2022/10/13 04:56:35;;;;;;;;;21.67;19.00;;;;;15.45;66.19;101547.53;5016811;28;45354;-44
2022/10/13 04:59:04;;;;;;;;;24.33;18.33;;;;;15.46;66.00;101543.84;4999525;28;45235;-44
2022/10/13 05:01:29;;;;;;;;;24.00;18.00;;;;;15.45;66.02;101543.00;5017123;28;45266;-43
2022/10/13 05:04:00;;;;;;;;;25.33;19.33;;;;;15.11;65.62;101483.16;5016658;28;45581;-47
2022/10/13 05:06:29;;;;;;;;;22.33;18.00;;;;;15.50;65.97;101539.00;5016773;28;45405;-45
2022/10/13 05:08:55;;;;;;;;;20.33;20.00;;;;;15.45;65.64;101526.91;5016703;28;45294;-45
2022/10/13 05:11:23;;;;;;;;;23.67;18.67;;;;;15.44;65.81;101521.72;5016884;28;45344;-47
2022/10/13 05:13:48;;;;;;;;;18.00;17.00;;;;;15.46;65.57;101525.06;5016554;28;46342;-43
2022/10/13 05:16:16;;;;;;;;;21.00;15.67;;;;;15.42;65.99;101523.72;5016473;28;45479;-44
2022/10/13 05:18:42;;;;;;;;;25.67;18.33;;;;;15.41;65.82;101527.41;5016551;28;45418;-43
2022/10/13 05:21:12;;;;;;;;;22.67;19.00;;;;;15.39;66.07;101532.09;5017130;28;45441;-44
2022/10/13 05:23:39;;;;;;;;;22.67;18.00;;;;;15.31;66.42;101518.66;5019066;28;46993;-44
2022/10/13 05:26:06;;;;;;;;;21.00;14.00;;;;;15.33;66.29;101528.19;5020992;28;45442;-45
2022/10/13 05:28:32;;;;;;;;;21.33;16.33;;;;;15.33;66.25;101527.34;5020433;28;45448;-43
2022/10/13 05:31:10;;;;;;;;;20.00;15.33;;;;;15.32;66.29;101536.41;5020388;28;45423;-45
2022/10/13 05:33:36;;;;;;;;;24.00;16.67;;;;;15.29;66.29;101520.63;5020070;28;46357;-43
2022/10/13 05:36:06;;;;;;;;;19.50;14.50;;;;;15.29;66.16;101516.09;5019926;28;45341;-46
2022/10/13 05:38:32;;;;;;;;;14.67;13.00;;;;;15.30;66.16;101512.44;5020197;28;45439;-46
2022/10/13 05:41:13;;;;;;;;;21.33;16.33;;;;;15.29;66.19;101513.41;5020289;28;45408;-46
2022/10/13 05:43:40;;;;;;;;;20.67;16.33;;;;;15.31;66.49;101510.59;5020066;28;46082;-47
2022/10/13 05:46:06;;;;;;;;;18.33;14.33;;;;;15.32;66.24;101515.78;5019932;28;45456;-45
2022/10/13 05:48:32;;;;;;;;;17.33;15.33;;;;;15.28;66.23;101497.50;5020042;28;45333;-45
2022/10/13 05:50:59;;;;;;;;;14.33;14.33;;;;;15.23;66.16;101496.16;5020096;28;45341;-46
2022/10/13 05:53:29;;;;;;;;;22.67;15.00;;;;;15.25;66.28;101489.78;5018866;28;45454;-43
2022/10/13 05:56:04;;;;;;;;;20.00;16.00;;;;;15.29;66.33;101483.09;5019710;28;45293;-47
2022/10/13 05:58:36;;;;;;;;;19.00;14.33;;;;;15.19;66.60;101465.28;5019804;28;45474;-43
2022/10/13 06:01:05;;;;;;;;;19.67;9.67;;;;;15.28;66.03;101479.56;5019987;28;45404;-44
2022/10/13 06:03:31;;;;;;;;;19.67;14.67;;;;;15.19;66.11;101478.69;5019886;28;46606;-44
2022/10/13 06:05:56;;;;;;;;;17.33;14.00;;;;;15.29;66.57;101494.66;5019764;28;45388;-43
2022/10/13 06:08:22;;;;;;;;;21.00;13.33;;;;;15.26;66.39;101495.00;5019497;28;45332;-43
2022/10/13 06:10:47;;;;;;;;;18.67;17.67;;;;;15.31;66.71;101508.75;5019938;28;45342;-46
2022/10/13 06:13:12;;;;;;;;;20.67;17.67;;;;;15.29;66.70;101512.59;5019424;28;46003;-44
2022/10/13 06:15:38;;;;;;;;;20.67;17.67;;;;;15.29;66.77;101508.06;5019467;28;45342;-44
2022/10/13 06:18:08;;;;;;;;;22.00;15.00;;;;;15.36;66.38;101510.97;5019822;28;45694;-44
2022/10/13 06:20:33;;;;;;;;;19.33;14.67;;;;;15.37;66.71;101509.94;5019690;28;45326;-44
2022/10/13 06:22:59;;;;;;;;;19.67;16.67;;;;;15.39;66.33;101508.81;5019308;28;45454;-47
2022/10/13 06:25:24;;;;;;;;;20.00;17.33;;;;;15.43;66.34;101506.66;5019383;28;45325;-45
2022/10/13 06:27:50;;;;;;;;;14.00;12.67;;;;;15.44;66.42;101508.31;5019454;28;45302;-46
2022/10/13 06:30:15;;;;;;;;;14.67;12.00;;;;;15.48;65.29;101515.88;5019640;28;45449;-44
2022/10/13 06:32:41;;;;;;;;;18.00;13.00;;;;;15.51;66.02;101508.53;5019179;28;46361;-44
2022/10/13 06:35:07;;;;;;;;;12.67;11.00;;;;;15.52;65.39;101503.00;5017442;28;45474;-44
2022/10/13 06:37:32;;;;;;;;;12.33;11.33;;;;;15.52;64.85;101489.59;5000834;28;45417;-45
2022/10/13 06:39:57;;;;;;;;;17.00;11.67;;;;;15.55;65.41;101491.09;5019366;28;45325;-46
2022/10/13 06:42:23;;;;;;;;;18.33;13.00;;;;;15.53;65.44;101491.25;5019192;28;45394;-47
2022/10/13 06:44:48;;;;;;;;;17.67;12.00;;;;;15.57;64.95;101498.00;5019120;28;45335;-45
2022/10/13 06:47:13;;;;;;;;;10.33;9.33;;;;;15.59;65.21;101492.47;5019189;28;45453;-43
2022/10/13 06:49:39;;;;;;;;;11.00;8.67;;;;;15.61;65.05;101482.41;5019213;28;45200;-43
2022/10/13 06:52:04;;;;;;;;;11.67;10.00;;;;;15.68;64.92;101495.06;5018946;28;45319;-44
2022/10/13 06:54:29;;;;;;;;;12.33;10.33;;;;;15.70;64.53;101492.22;5018813;28;45246;-43
2022/10/13 06:56:55;;;;;;;;;14.00;11.00;;;;;15.54;64.06;101476.84;5019088;28;45497;-44
2022/10/13 06:59:20;;;;;;;;;12.33;11.00;;;;;15.59;64.61;101496.00;5019195;28;45386;-44
2022/10/13 07:01:46;;;;;;;;;11.00;8.67;;;;;15.64;64.59;101488.34;5018774;28;45300;-43
2022/10/13 07:04:12;;;;;;;;;8.67;8.67;;;;;15.65;64.63;101506.09;5018954;28;45178;-43
2022/10/13 07:06:37;;;;;;;;;9.67;9.33;;;;;15.68;64.56;101502.28;5018962;28;45785;-43
2022/10/13 07:09:04;;;;;;;;;11.33;11.33;;;;;15.76;64.56;101517.53;5018864;28;45203;-45
2022/10/13 07:11:30;;;;;;;;;11.33;8.67;;;;;15.79;64.00;101519.91;5018422;28;46385;-43
2022/10/13 07:13:55;;;;;;;;;14.67;10.00;;;;;15.83;63.73;101508.69;5018560;28;45408;-43
2022/10/13 07:16:20;;;;;;;;;8.33;8.00;;;;;15.86;63.54;101518.25;5018808;28;45378;-45
2022/10/13 07:18:47;;;;;;;;;9.33;9.00;;;;;15.85;63.59;101511.22;5018973;28;45258;-48
2022/10/13 07:21:12;;;;;;;;;8.00;8.00;;;;;15.84;63.35;101509.50;5017983;28;46335;-43
2022/10/13 07:23:38;;;;;;;;;7.67;7.33;;;;;15.86;63.46;101529.00;5018339;28;45412;-43
2022/10/13 07:26:12;;;;;;;;;10.67;9.00;;;;;15.93;63.41;101538.09;5018578;28;45313;-44
2022/10/13 07:28:38;;;;;;;;;8.00;7.00;;;;;15.97;63.36;101534.06;5018730;28;45421;-45
2022/10/13 07:31:13;;;;;;;;;10.00;8.33;;;;;15.95;63.45;101522.66;5018158;28;46374;-43
2022/10/13 07:33:40;;;;;;;;;8.67;8.67;;;;;16.00;63.38;101523.00;5018046;28;45348;-45
2022/10/13 07:36:06;;;;;;;;;10.00;9.00;;;;;16.06;63.46;101521.53;5018408;28;45266;-45
2022/10/13 07:38:31;;;;;;;;;7.00;7.00;;;;;16.05;62.98;101512.59;5018469;28;45341;-46
2022/10/13 07:41:01;;;;;;;;;8.33;7.33;;;;;15.93;63.29;101496.00;5017971;28;45428;-45
2022/10/13 07:43:27;;;;;;;;;19.67;10.00;;;;;16.07;63.05;101520.50;5018096;28;45345;-46
2022/10/13 07:45:53;;;;;;;;;8.33;7.00;;;;;16.11;63.42;101511.13;5017827;28;45464;-43
2022/10/13 07:48:18;;;;;;;;;12.33;6.67;;;;;16.13;62.66;101509.94;5018353;28;45333;-44
2022/10/13 07:50:43;;;;;;;;;10.00;6.00;;;;;16.20;62.97;101521.72;5018034;28;46301;-46
2022/10/13 07:53:09;;;;;;;;;10.00;9.67;;;;;16.29;62.36;101529.78;5017812;28;45344;-44
2022/10/13 07:55:35;;;;;;;;;7.00;7.00;;;;;16.31;62.32;101520.56;5017864;28;45364;-45
2022/10/13 07:58:02;;;;;;;;;10.33;9.00;;;;;16.46;62.18;101534.16;5018501;28;45420;-43
2022/10/13 08:00:27;;;;;;;;;7.67;7.67;;;;;16.58;61.78;101542.75;5017861;28;46360;-44
2022/10/13 08:02:54;;;;;;;;;9.00;7.00;;;;;16.66;61.46;101538.22;5017823;28;45469;-44
2022/10/13 08:05:19;;;;;;;;;7.00;5.67;;;;;16.71;60.90;101535.03;5017915;28;45325;-43
2022/10/13 08:07:45;;;;;;;;;11.67;7.67;;;;;16.69;61.11;101537.91;5016782;28;45487;-45
2022/10/13 08:10:11;;;;;;;;;8.67;5.67;;;;;16.69;61.09;101545.97;5017579;28;46228;-49
2022/10/13 08:12:36;;;;;;;;;8.00;6.67;;;;;16.67;60.96;101545.28;5017765;28;45419;-42
2022/10/13 08:15:02;;;;;;;;;10.67;8.33;;;;;16.63;61.06;101551.97;5017876;28;45879;-41
2022/10/13 08:17:27;;;;;;;;;11.00;6.00;;;;;16.61;61.39;101550.47;5017891;28;45418;-43
2022/10/13 08:19:53;;;;;;;;;10.00;4.00;;;;;16.61;61.50;101555.84;5017540;28;46584;-44
2022/10/13 08:22:18;;;;;;;;;8.67;5.67;;;;;16.59;61.27;101545.25;5017610;28;45326;-43
2022/10/13 08:24:44;;;;;;;;;8.00;7.00;;;;;16.60;61.20;101548.78;5017654;28;45239;-43
2022/10/13 08:27:21;;;;;;;;;9.67;7.33;;;;;16.60;61.47;101549.66;5018146;28;45440;-45
2022/10/13 08:29:46;;;;;;;;;7.67;4.67;;;;;16.62;61.12;101549.47;5017570;28;47309;-45
2022/10/13 08:32:12;;;;;;;;;8.00;4.67;;;;;16.60;61.18;101540.72;5017330;28;45263;-43
2022/10/13 08:34:37;;;;;;;;;8.67;6.33;;;;;16.62;61.54;101536.88;5017880;28;45285;-42
2022/10/13 08:37:03;;;;;;;;;9.33;5.33;;;;;16.63;61.13;101532.34;5017623;28;45257;-42
2022/10/13 08:39:29;;;;;;;;;8.33;4.00;;;;;16.70;60.94;101544.09;5017147;28;45433;-42
2022/10/13 08:41:56;;;;;;;;;6.67;6.00;;;;;16.79;60.94;101544.97;5017292;28;45378;-44
2022/10/13 08:44:29;;;;;;;;;5.67;5.00;;;;;16.87;60.45;101547.66;5017431;28;45475;-44
2022/10/13 08:46:57;;;;;;;;;4.67;4.33;;;;;17.00;60.02;101550.69;4999548;28;45496;-44
2022/10/13 08:49:22;;;;;;;;;4.67;4.67;;;;;17.08;59.71;101549.84;5017081;28;46277;-42
2022/10/13 08:51:48;;;;;;;;;7.67;5.00;;;;;17.14;59.51;101536.53;5017098;28;45514;-44
2022/10/13 08:54:17;;;;;;;;;3.67;3.67;;;;;17.18;59.47;101537.88;5016838;28;45376;-46
2022/10/13 08:56:45;;;;;;;;;4.67;4.67;;;;;17.29;59.23;101543.94;5017042;28;45503;-42
2022/10/13 08:59:15;;;;;;;;;5.67;5.67;;;;;17.35;58.95;101533.31;5015964;28;45423;-47
2022/10/13 09:01:42;;;;;;;;;4.33;4.33;;;;;17.51;59.07;101539.66;5017288;28;45469;-43
2022/10/13 09:04:35;;;;;;;;;5.00;5.00;;;;;17.69;58.52;101541.09;5017785;28;45383;-43
2022/10/13 09:07:23;;;;;;;;;8.00;5.00;;;;;17.99;57.87;101543.19;5017964;28;45229;-44
2022/10/13 09:09:51;;;;;;;;;5.00;5.00;;;;;18.28;56.87;101535.28;5017432;28;45373;-41
2022/10/13 09:12:20;;;;;;;;;5.67;5.00;;;;;18.64;56.36;101524.78;5017729;28;45432;-44
2022/10/13 09:14:57;;;;;;;;;6.33;5.00;;;;;18.90;55.31;101532.50;5017130;28;45376;-44
2022/10/13 09:17:27;;;;;;;;;9.00;6.00;;;;;19.03;54.91;101531.03;5017172;28;45497;-43
2022/10/13 09:20:00;;;;;;;;;4.75;4.75;;;;;19.15;54.65;101540.38;5016583;28;45506;-47
2022/10/13 09:22:32;;;;;;;;;7.50;6.00;;;;;19.19;54.38;101545.22;5016682;28;45430;-42
2022/10/13 09:25:10;;;;;;;;;6.75;5.00;;;;;19.16;54.52;101544.72;5016721;28;45328;-46
2022/10/13 09:27:46;;;;;;;;;8.00;4.75;;;;;19.08;54.74;101548.34;5016942;28;45333;-42
2022/10/13 09:30:24;;;;;;;;;4.00;4.00;;;;;19.01;54.72;101533.94;5016542;28;46205;-43
2022/10/13 09:32:50;;;;;;;;;6.75;3.75;;;;;18.98;54.59;101531.59;5016612;28;45338;-41
2022/10/13 09:35:24;;;;;;;;;4.50;4.00;;;;;18.95;54.78;101534.66;5016958;28;45324;-45
2022/10/13 09:38:09;;;;;;;;;4.50;4.50;;;;;18.87;54.92;101529.31;5016906;28;45235;-43
2022/10/13 09:40:35;;;;;;;;;9.75;7.00;;;;;18.84;55.15;101527.84;5016309;28;46091;-44
2022/10/13 09:43:05;;;;;;;;;13.00;6.00;;;;;18.82;55.12;101526.34;5016250;28;45378;-42
2022/10/13 09:45:31;;;;;;;;;5.75;3.75;;;;;18.80;55.34;101512.22;5016672;28;45483;-45
2022/10/13 09:47:59;;;;;;;;;7.00;5.50;;;;;18.75;55.81;101522.69;5016783;28;45287;-43
2022/10/13 09:50:28;;;;;;;;;8.25;5.25;;;;;18.58;56.58;101522.81;5015960;28;46440;-43
2022/10/13 09:53:15;;;;;;;;;3.50;3.00;;;;;18.46;57.29;101516.16;5015766;28;45250;-42
2022/10/13 09:55:40;;;;;;;;;4.00;4.00;;;;;18.38;58.17;101524.31;5015980;28;45459;-41
2022/10/13 09:58:15;;;;;;;;;8.75;5.00;;;;;18.32;58.16;101527.69;5016515;28;45306;-45
2022/10/13 10:00:40;;;;;;;;;9.50;4.00;;;;;18.10;58.98;101518.56;5016162;28;46380;-45
2022/10/13 10:03:15;;;;;;;;;7.25;5.25;;;;;18.10;59.31;101530.19;5016207;28;45291;-42
2022/10/13 10:05:55;;;;;;;;;7.75;4.75;;;;;18.00;59.03;101548.44;5016573;28;45447;-43
2022/10/13 10:08:28;;;;;;;;;4.25;4.00;;;;;17.79;59.28;101537.41;5016697;28;45325;-42
2022/10/13 10:10:55;;;;;;;;;9.33;5.67;;;;;17.58;59.86;101513.75;5019472;28;45301;-44
2022/10/13 10:13:21;;;;;;;;;7.33;5.00;;;;;17.52;60.38;101531.41;5019543;28;45372;-45
2022/10/13 10:16:01;;;;;;;;;4.33;4.33;;;;;17.43;60.57;101524.38;5019685;28;45428;-44
2022/10/13 10:18:41;;;;;;;;;5.00;5.00;;;;;17.35;61.42;101525.25;5019732;28;45344;-42
2022/10/13 10:21:15;;;;;;;;;3.33;3.33;;;;;17.35;61.57;101527.94;5019669;28;45262;-44
2022/10/13 10:23:47;;;;;;;;;7.00;5.33;;;;;17.37;61.48;101530.47;5019291;28;45238;-42
2022/10/13 10:26:24;;;;;;;;;6.67;4.33;;;;;17.32;61.19;101530.13;5019403;28;45278;-42
2022/10/13 10:29:03;;;;;;;;;4.00;4.00;;;;;17.29;61.69;101531.31;5019717;28;45478;-45
2022/10/13 10:31:35;;;;;;;;;7.33;4.00;;;;;17.30;61.65;101533.00;5019267;28;45539;-45
2022/10/13 10:34:25;;;;;;;;;6.67;6.67;;;;;17.25;61.67;101521.91;5018429;28;45211;-44
2022/10/13 10:37:27;;;;;;;;;10.00;6.67;;;;;17.23;61.44;101518.53;5019544;28;45409;-42
2022/10/13 10:40:11;;;;;;;;;6.33;5.00;;;;;17.21;61.72;101513.34;5019232;28;45329;-45
2022/10/13 10:43:24;;;;;;;;;6.00;4.33;;;;;17.28;61.59;101518.06;5019175;28;46306;-46
2022/10/13 10:45:50;;;;;;;;;5.33;5.00;;;;;17.39;62.16;101514.97;4957749;28;45329;-47
2022/10/13 10:48:33;;;;;;;;;7.67;7.00;;;;;17.45;61.93;101512.44;4957975;28;45416;-44
2022/10/13 10:51:00;;;;;;;;;6.00;5.00;;;;;17.42;61.68;101504.72;4958091;28;45400;-45
2022/10/13 10:53:37;;;;;;;;;8.00;4.00;;;;;17.45;61.74;101507.06;4957699;28;45433;-45
2022/10/13 10:56:25;;;;;;;;;10.33;7.00;;;;;17.48;61.79;101499.66;4941053;28;45393;-42
2022/10/13 10:59:16;;;;;;;;;9.33;6.67;;;;;17.44;61.65;101502.72;4954024;28;45501;-43
2022/10/13 11:02:06;;;;;;;;;8.33;7.00;;;;;17.40;61.71;101504.06;4957742;28;45305;-43
2022/10/13 11:04:48;;;;;;;;;8.00;4.00;;;;;17.42;61.80;101502.03;4957426;28;46542;-44
2022/10/13 11:07:23;;;;;;;;;6.00;6.00;;;;;17.43;61.42;101508.25;4957402;28;45601;-42
2022/10/13 11:09:49;;;;;;;;;6.33;5.00;;;;;17.40;62.00;101498.69;4957547;28;45540;-42
2022/10/13 11:12:21;;;;;;;;;4.00;4.00;;;;;17.43;62.28;101492.09;4957726;28;45452;-45
2022/10/13 11:14:52;;;;;;;;;6.67;5.00;;;;;17.45;61.87;101495.47;4957490;28;46065;-47
2022/10/13 11:17:38;;;;;;;;;7.00;5.33;;;;;17.46;61.88;101497.16;4957505;28;45373;-45
2022/10/13 11:20:38;;;;;;;;;9.00;7.00;;;;;17.46;62.16;101494.47;4988671;28;45354;-47
2022/10/13 11:23:03;;;;;;;;;3.67;3.67;;;;;17.48;62.12;101480.81;5018710;28;45258;-42
2022/10/13 11:25:42;;;;;;;;;7.00;7.00;;;;;17.54;61.85;101491.75;5018230;28;46197;-43
2022/10/13 11:28:19;;;;;;;;;6.67;6.67;;;;;17.69;61.86;101492.66;5018421;28;45473;-44